createdAt,value
2023-04-19T00:00:17.652Z,98892.13
2023-04-19T00:02:44.630Z,98888.41
2023-04-19T00:05:14.281Z,98884.03
2023-04-19T00:07:41.552Z,98888.53
2023-04-19T00:10:08.783Z,98894.34
2023-04-19T00:12:35.879Z,98881.38
2023-04-19T00:15:02.473Z,98886.13
2023-04-19T00:17:29.328Z,98882.44
2023-04-19T00:19:57.014Z,98883.50
2023-04-19T00:22:23.833Z,98882.09
2023-04-19T00:24:50.499Z,98880.69
2023-04-19T00:27:17.206Z,98877.69
2023-04-19T00:29:43.826Z,98881.91
2023-04-19T00:32:11.367Z,98881.13
2023-04-19T00:34:38.088Z,98879.19
2023-04-19T00:37:07.342Z,98876.91
2023-04-19T00:39:34.029Z,98876.56
2023-04-19T00:42:01.569Z,98874.88
2023-04-19T00:44:28.456Z,98867.03
2023-04-19T00:46:56.831Z,98871.53
2023-04-19T00:49:24.513Z,98877.63
2023-04-19T00:51:51.716Z,98868.97
2023-04-19T00:54:19.442Z,98865.63
2023-04-19T00:56:46.715Z,98869.88
2023-04-19T00:59:15.458Z,98865.00
2023-04-19T01:01:42.185Z,98862.81
2023-04-19T01:04:09.771Z,98865.63
2023-04-19T01:06:37.037Z,98858.41
2023-04-19T01:11:42.510Z,98856.28
2023-04-19T01:14:10.049Z,98853.38
2023-04-19T01:16:36.756Z,98859.13
2023-04-19T01:19:03.455Z,98856.28
2023-04-19T01:21:30.828Z,98851.63
2023-04-19T01:23:57.511Z,98850.75
2023-04-19T01:26:24.993Z,98847.22
2023-04-19T01:28:51.635Z,98843.69
2023-04-19T01:31:18.325Z,98840.38
2023-04-19T01:33:45.095Z,98834.94
2023-04-19T01:36:11.842Z,98834.28
2023-04-19T01:38:38.627Z,98836.75
2023-04-19T01:48:04.900Z,98826.09
2023-04-19T01:50:31.960Z,98819.47
2023-04-19T01:52:59.433Z,98824.31
2023-04-19T01:55:26.499Z,98821.75
2023-04-19T01:57:54.899Z,98814.72
2023-04-19T02:00:22.277Z,98818.16
2023-04-19T02:02:49.334Z,98816.91
2023-04-19T02:05:16.363Z,98809.44
2023-04-19T02:07:42.986Z,98809.78
2023-04-19T02:10:11.737Z,98805.38
2023-04-19T02:12:38.548Z,98798.53
2023-04-19T02:15:06.128Z,98800.63
2023-04-19T02:17:32.792Z,98799.75
2023-04-19T02:19:59.437Z,98795.28
2023-04-19T02:22:26.143Z,98788.94
2023-04-19T02:24:52.909Z,98792.91
2023-04-19T02:27:19.588Z,98788.31
2023-04-19T02:29:46.755Z,98785.31
2023-04-19T02:32:13.508Z,98786.13
2023-04-19T02:34:40.155Z,98790.41
2023-04-19T02:37:06.801Z,98782.94
2023-04-19T02:39:34.494Z,98788.47
2023-04-19T02:42:01.621Z,98777.31
2023-04-19T02:44:28.307Z,98786.81
2023-04-19T02:46:55.073Z,98779.19
2023-04-19T02:49:21.893Z,98781.00
2023-04-19T02:51:50.544Z,98787.06
2023-04-19T02:54:18.025Z,98777.94
2023-04-19T02:56:44.623Z,98782.06
2023-04-19T02:59:11.245Z,98773.00
2023-04-19T03:01:38.175Z,98784.25
2023-04-19T03:04:04.996Z,98768.59
2023-04-19T03:06:32.236Z,98773.78
2023-04-19T03:08:58.909Z,98774.06
2023-04-19T03:11:25.582Z,98774.06
2023-04-19T03:13:52.215Z,98765.53
2023-04-19T03:16:19.027Z,98772.91
2023-04-19T03:18:48.072Z,98767.72
2023-04-19T03:21:15.997Z,98764.09
2023-04-19T03:23:42.626Z,98767.16
2023-04-19T03:26:09.267Z,98763.66
2023-04-19T03:31:14.581Z,98765.41
2023-04-19T03:33:41.336Z,98764.03
2023-04-19T03:36:08.272Z,98755.13
2023-04-19T03:38:35.030Z,98757.13
2023-04-19T03:41:01.740Z,98757.41
2023-04-19T03:43:28.429Z,98756.44
2023-04-19T03:48:26.327Z,98757.06
2023-04-19T03:50:52.962Z,98753.44
2023-04-19T03:53:19.544Z,98748.94
2023-04-19T03:55:46.193Z,98742.06
2023-04-19T03:58:12.783Z,98744.19
2023-04-19T04:00:39.477Z,98742.16
2023-04-19T04:03:06.390Z,98743.66
2023-04-19T04:05:33.298Z,98739.84
2023-04-19T04:07:59.966Z,98737.59
2023-04-19T04:10:26.884Z,98743.81
2023-04-19T04:17:57.652Z,98747.19
2023-04-19T04:20:24.454Z,98750.09
2023-04-19T04:22:51.722Z,98748.13
2023-04-19T04:25:19.560Z,98752.81
2023-04-19T04:27:50.506Z,98753.97
2023-04-19T04:30:17.213Z,98753.97
2023-04-19T04:32:45.210Z,98748.94
2023-04-19T04:35:11.841Z,98750.75
2023-04-19T04:37:38.552Z,98757.44
2023-04-19T04:40:06.023Z,98757.09
2023-04-19T04:42:33.002Z,98764.66
2023-04-19T04:45:01.815Z,98761.50
2023-04-19T04:50:04.046Z,98758.59
2023-04-19T04:52:30.834Z,98764.97
2023-04-19T04:54:57.501Z,98767.09
2023-04-19T04:57:24.181Z,98767.31
2023-04-19T04:59:50.883Z,98762.69
2023-04-19T05:02:17.532Z,98764.88
2023-04-19T05:04:44.267Z,98768.72
2023-04-19T05:07:11.112Z,98767.69
2023-04-19T05:09:37.837Z,98771.34
2023-04-19T05:12:04.859Z,98766.00
2023-04-19T05:14:31.580Z,98770.03
2023-04-19T05:16:58.254Z,98771.28
2023-04-19T05:21:56.375Z,98766.69
2023-04-19T05:24:23.004Z,98766.59
2023-04-19T05:26:49.635Z,98771.03
2023-04-19T05:29:17.486Z,98770.13
2023-04-19T05:31:44.258Z,98765.13
2023-04-19T05:34:11.104Z,98773.84
2023-04-19T05:36:37.727Z,98769.88
2023-04-19T05:39:04.377Z,98769.16
2023-04-19T05:41:31.040Z,98772.94
2023-04-19T05:43:57.643Z,98769.03
2023-04-19T05:46:24.350Z,98771.09
2023-04-19T05:48:50.992Z,98775.06
2023-04-19T05:51:19.153Z,98770.75
2023-04-19T05:53:46.549Z,98779.47
2023-04-19T05:56:13.291Z,98769.91
2023-04-19T05:58:39.952Z,98780.09
2023-04-19T06:01:07.144Z,98767.59
2023-04-19T06:03:34.100Z,98780.00
2023-04-19T06:06:00.994Z,98770.72
2023-04-19T06:08:27.670Z,98773.06
2023-04-19T06:11:00.119Z,98772.72
2023-04-19T06:13:29.047Z,98767.88
2023-04-19T06:15:55.810Z,98776.78
2023-04-19T06:18:22.463Z,98769.38
2023-04-19T06:20:49.270Z,98774.69
2023-04-19T06:23:17.410Z,98768.78
2023-04-19T06:25:44.164Z,98768.16
2023-04-19T06:28:11.657Z,98773.78
2023-04-19T06:30:38.315Z,98770.34
2023-04-19T06:33:04.961Z,98775.56
2023-04-19T06:35:32.192Z,98773.63
2023-04-19T06:38:01.373Z,98772.06
2023-04-19T06:40:29.533Z,98764.44
2023-04-19T06:42:56.379Z,98774.84
2023-04-19T06:47:54.422Z,98776.34
2023-04-19T06:50:21.627Z,98772.44
2023-04-19T06:52:48.233Z,98772.72
2023-04-19T06:55:14.897Z,98766.28
2023-04-19T06:57:42.751Z,98773.34
2023-04-19T07:00:10.941Z,98766.44
2023-04-19T07:02:37.783Z,98770.28
2023-04-19T07:05:04.881Z,98765.84
2023-04-19T07:07:31.534Z,98766.75
2023-04-19T07:09:58.176Z,98762.31
2023-04-19T07:12:24.850Z,98773.38
2023-04-19T07:14:56.596Z,98760.09
2023-04-19T07:17:23.671Z,98762.84
2023-04-19T07:19:50.435Z,98763.47
2023-04-19T07:22:17.067Z,98756.69
2023-04-19T07:24:44.751Z,98754.66
2023-04-19T07:27:11.566Z,98756.09
2023-04-19T07:29:38.228Z,98748.53
2023-04-19T07:32:05.526Z,98751.63
2023-04-19T07:34:32.187Z,98762.53
2023-04-19T07:36:58.991Z,98752.38
2023-04-19T07:39:25.599Z,98755.34
2023-04-19T07:41:52.275Z,98752.84
2023-04-19T07:44:19.503Z,98754.97
2023-04-19T07:46:46.367Z,98746.66
2023-04-19T07:49:13.940Z,98743.13
2023-04-19T07:51:40.652Z,98738.94
2023-04-19T07:54:07.439Z,98735.69
2023-04-19T07:56:34.110Z,98741.94
2023-04-19T08:01:32.778Z,98743.06
2023-04-19T08:04:00.021Z,98736.97
2023-04-19T08:06:27.940Z,98745.63
2023-04-19T08:11:25.966Z,98744.69
2023-04-19T08:14:04.609Z,98751.16
2023-04-19T08:19:05.652Z,98743.56
2023-04-19T08:21:40.587Z,98747.00
2023-04-19T08:24:08.210Z,98740.91
2023-04-19T08:26:35.108Z,98745.75
2023-04-19T08:29:01.940Z,98748.66
2023-04-19T08:31:28.724Z,98732.59
2023-04-19T08:33:55.647Z,98738.94
2023-04-19T08:36:35.456Z,98731.28
2023-04-19T08:39:14.738Z,98732.25
2023-04-19T08:41:56.101Z,98740.50
2023-04-19T08:44:36.493Z,98736.00
2023-04-19T08:47:05.221Z,98727.25
2023-04-19T08:49:35.966Z,98728.84
2023-04-19T08:52:03.786Z,98725.69
2023-04-19T08:54:30.786Z,98732.22
2023-04-19T08:57:03.628Z,98716.94
2023-04-19T08:59:31.109Z,98721.72
2023-04-19T09:02:01.601Z,98710.56
2023-04-19T09:09:40.819Z,98708.09
2023-04-19T09:12:18.051Z,98707.59
2023-04-19T09:19:55.377Z,98708.34
2023-04-19T09:25:30.007Z,98705.53
2023-04-19T09:27:40.159Z,98699.97
2023-04-19T09:30:12.727Z,98701.97
2023-04-19T09:32:49.066Z,98693.84
2023-04-19T09:35:16.325Z,98688.78
2023-04-19T09:40:23.553Z,98681.25
2023-04-19T09:45:30.149Z,98678.28
2023-04-19T09:48:05.788Z,98674.34
2023-04-19T09:50:33.964Z,98673.09
2023-04-19T09:55:57.217Z,98658.88
2023-04-19T09:58:34.398Z,98652.56
2023-04-19T10:01:15.636Z,98649.44
2023-04-19T10:03:45.562Z,98649.47
2023-04-19T10:06:40.168Z,98658.16
2023-04-19T10:09:05.087Z,98659.88
2023-04-19T10:11:39.216Z,98653.47
2023-04-19T10:14:08.542Z,98657.50
2023-04-19T10:16:36.743Z,98641.13
2023-04-19T10:19:07.188Z,98643.59
2023-04-19T10:21:36.128Z,98641.16
2023-04-19T10:24:03.691Z,98653.25
2023-04-19T10:26:31.034Z,98644.63
2023-04-19T10:28:57.775Z,98642.78
2023-04-19T10:34:06.328Z,98643.78
2023-04-19T10:36:34.042Z,98639.81
2023-04-19T10:39:00.764Z,98640.63
2023-04-19T10:41:59.741Z,98632.03
2023-04-19T10:44:26.381Z,98643.53
2023-04-19T10:46:53.099Z,98635.22
2023-04-19T10:49:23.938Z,98637.38
2023-04-19T10:51:55.130Z,98634.41
2023-04-19T10:54:33.608Z,98628.06
2023-04-19T10:59:44.160Z,98620.97
2023-04-19T11:02:22.763Z,98620.59
2023-04-19T11:04:49.895Z,98613.06
2023-04-19T11:07:24.120Z,98616.06
2023-04-19T11:09:52.112Z,98607.03
2023-04-19T11:12:21.503Z,98609.88
2023-04-19T11:14:49.305Z,98612.06
2023-04-19T11:17:25.741Z,98608.41
2023-04-19T11:20:03.825Z,98606.63
2023-04-19T11:22:45.510Z,98603.59
2023-04-19T11:25:19.690Z,98594.94
2023-04-19T11:27:56.000Z,98603.00
2023-04-19T11:30:29.493Z,98603.84
2023-04-19T11:32:57.405Z,98606.16
2023-04-19T11:35:26.441Z,98603.66
2023-04-19T11:37:54.756Z,98597.03
2023-04-19T11:40:22.714Z,98594.00
2023-04-19T11:42:57.441Z,98585.56
2023-04-19T11:45:29.826Z,98586.72
2023-04-19T11:47:58.693Z,98591.94
2023-04-19T11:50:38.775Z,98586.78
2023-04-19T11:53:22.559Z,98581.47
2023-04-19T11:55:58.910Z,98575.78
2023-04-19T11:58:38.407Z,98579.63
2023-04-19T12:01:10.917Z,98575.19
2023-04-19T12:03:43.354Z,98586.47
2023-04-19T12:06:15.225Z,98582.41
2023-04-19T12:08:49.986Z,98581.06
2023-04-19T12:11:19.130Z,98574.69
2023-04-19T12:13:45.876Z,98579.16
2023-04-19T12:16:13.452Z,98575.69
2023-04-19T12:18:53.025Z,98573.25
2023-04-19T12:21:25.971Z,98578.19
2023-04-19T12:23:59.998Z,98572.28
2023-04-19T12:26:28.769Z,98575.34
2023-04-19T12:28:56.668Z,98571.84
2023-04-19T12:31:23.755Z,98569.13
2023-04-19T12:33:50.850Z,98580.25
2023-04-19T12:36:17.622Z,98575.50
2023-04-19T12:38:44.313Z,98568.81
2023-04-19T12:41:11.367Z,98563.34
2023-04-19T12:43:38.185Z,98564.53
2023-04-19T12:46:05.629Z,98561.50
2023-04-19T12:48:32.459Z,98560.47
2023-04-19T12:50:59.173Z,98560.09
2023-04-19T12:53:25.939Z,98556.47
2023-04-19T12:55:52.753Z,98565.25
2023-04-19T12:58:21.229Z,98562.53
2023-04-19T13:00:47.879Z,98559.28
2023-04-19T13:03:14.651Z,98565.25
2023-04-19T13:05:41.611Z,98557.13
2023-04-19T13:08:08.324Z,98560.88
2023-04-19T13:10:34.973Z,98555.75
2023-04-19T13:13:01.703Z,98555.00
2023-04-19T13:15:29.675Z,98543.50
2023-04-19T13:17:56.575Z,98538.81
2023-04-19T13:20:23.256Z,98535.56
2023-04-19T13:22:49.985Z,98536.44
2023-04-19T13:25:16.874Z,98532.78
2023-04-19T13:30:16.088Z,98529.69
2023-04-19T13:32:43.168Z,98523.38
2023-04-19T13:35:10.520Z,98524.97
2023-04-19T13:37:37.178Z,98515.38
2023-04-19T13:40:18.075Z,98519.91
2023-04-19T13:42:45.812Z,98513.31
2023-04-19T13:45:12.702Z,98517.78
2023-04-19T13:50:11.151Z,98512.69
2023-04-19T13:52:37.777Z,98499.59
2023-04-19T13:55:04.763Z,98496.63
2023-04-19T13:57:31.412Z,98496.88
2023-04-19T13:59:58.063Z,98496.38
2023-04-19T14:02:24.855Z,98496.25
2023-04-19T14:04:51.636Z,98488.66
2023-04-19T14:07:18.293Z,98483.75
2023-04-19T14:09:45.074Z,98486.72
2023-04-19T14:12:11.765Z,98484.25
2023-04-19T14:14:38.376Z,98479.09
2023-04-19T14:17:05.039Z,98475.06
2023-04-19T14:19:31.919Z,98469.38
2023-04-19T14:21:58.621Z,98468.13
2023-04-19T14:24:25.344Z,98468.66
2023-04-19T14:27:06.901Z,98459.75
2023-04-19T14:29:36.126Z,98468.44
2023-04-19T14:32:13.372Z,98453.22
2023-04-19T14:34:49.899Z,98460.50
2023-04-19T14:37:16.654Z,98459.66
2023-04-19T14:39:45.329Z,98452.38
2023-04-19T14:42:12.291Z,98454.06
2023-04-19T14:44:38.971Z,98451.19
2023-04-19T14:47:05.721Z,98457.88
2023-04-19T14:49:32.463Z,98453.50
2023-04-19T14:51:59.159Z,98460.47
2023-04-19T14:54:25.806Z,98451.41
2023-04-19T14:56:53.082Z,98443.28
2023-04-19T14:59:19.686Z,98439.97
2023-04-19T15:01:46.425Z,98436.56
2023-04-19T15:04:13.337Z,98432.97
2023-04-19T15:06:41.050Z,98429.16
2023-04-19T15:09:07.832Z,98430.28
2023-04-19T15:11:34.695Z,98425.72
2023-04-19T15:14:01.353Z,98432.00
2023-04-19T15:16:28.144Z,98431.53
2023-04-19T15:18:54.834Z,98431.13
2023-04-19T15:21:24.636Z,98427.47
2023-04-19T15:23:51.758Z,98423.56
2023-04-19T15:26:18.430Z,98423.66
2023-04-19T15:28:45.053Z,98424.41
2023-04-19T15:31:11.889Z,98422.94
2023-04-19T15:33:38.647Z,98415.19
2023-04-19T15:36:05.835Z,98407.03
2023-04-19T15:38:32.934Z,98421.16
2023-04-19T15:41:01.585Z,98417.13
2023-04-19T15:43:28.328Z,98410.69
2023-04-19T15:45:55.123Z,98412.97
2023-04-19T15:50:59.327Z,98405.13
2023-04-19T15:53:25.926Z,98404.47
2023-04-19T15:55:53.729Z,98407.53
2023-04-19T16:01:00.211Z,98410.25
2023-04-19T16:03:27.151Z,98416.91
2023-04-19T16:05:53.982Z,98417.41
2023-04-19T16:08:20.682Z,98405.19
2023-04-19T16:10:47.995Z,98398.94
2023-04-19T16:13:15.943Z,98405.09
2023-04-19T16:15:44.031Z,98406.72
2023-04-19T16:18:11.415Z,98413.63
2023-04-19T16:20:38.321Z,98404.97
2023-04-19T16:23:04.983Z,98402.50
2023-04-19T16:25:32.073Z,98401.78
2023-04-19T16:27:59.235Z,98403.50
2023-04-19T16:30:29.140Z,98406.97
2023-04-19T16:32:57.074Z,98406.59
2023-04-19T16:35:24.793Z,98400.25
2023-04-19T16:40:23.801Z,98396.13
2023-04-19T16:42:50.583Z,98395.97
2023-04-19T16:45:20.275Z,98396.44
2023-04-19T16:47:47.034Z,98395.97
2023-04-19T16:50:14.578Z,98393.47
2023-04-19T16:52:41.470Z,98388.22
2023-04-19T16:55:08.783Z,98391.94
2023-04-19T16:57:36.914Z,98392.94
2023-04-19T17:00:05.978Z,98388.84
2023-04-19T17:02:33.989Z,98387.22
2023-04-19T17:05:01.249Z,98385.81
2023-04-19T17:07:28.170Z,98385.69
2023-04-19T17:09:55.531Z,98381.03
2023-04-19T17:12:22.343Z,98390.50
2023-04-19T17:17:21.363Z,98389.50
2023-04-19T17:19:48.120Z,98397.66
2023-04-19T17:22:15.799Z,98399.50
2023-04-19T17:24:42.907Z,98393.50
2023-04-19T17:27:09.752Z,98388.38
2023-04-19T17:29:36.551Z,98397.63
2023-04-19T17:32:03.759Z,98401.50
2023-04-19T17:34:30.556Z,98411.63
2023-04-19T17:36:57.357Z,98415.31
2023-04-19T17:39:27.848Z,98404.06
2023-04-19T17:41:55.639Z,98419.19
2023-04-19T17:44:23.069Z,98412.47
2023-04-19T17:46:49.755Z,98413.19
2023-04-19T17:49:19.292Z,98412.25
2023-04-19T17:51:46.585Z,98413.34
2023-04-19T17:54:13.488Z,98410.78
2023-04-19T17:56:40.182Z,98406.16
2023-04-19T17:59:06.869Z,98407.75
2023-04-19T18:01:35.226Z,98411.00
2023-04-19T18:04:03.576Z,98416.75
2023-04-19T18:06:31.910Z,98409.69
2023-04-19T18:08:58.873Z,98413.13
2023-04-19T18:11:28.162Z,98413.91
2023-04-19T18:13:55.249Z,98424.28
2023-04-19T18:16:22.037Z,98425.72
2023-04-19T18:18:48.725Z,98420.84
2023-04-19T18:21:15.604Z,98423.56
2023-04-19T18:23:42.231Z,98426.91
2023-04-19T18:26:09.106Z,98429.88
2023-04-19T18:28:36.894Z,98435.03
2023-04-19T18:31:05.059Z,98442.84
2023-04-19T18:33:31.767Z,98440.91
2023-04-19T18:35:58.494Z,98439.16
2023-04-19T18:38:25.261Z,98441.72
2023-04-19T18:40:52.042Z,98438.75
2023-04-19T18:43:18.738Z,98446.63
2023-04-19T18:45:45.372Z,98438.66
2023-04-19T18:48:12.140Z,98442.75
2023-04-19T18:53:10.000Z,98440.16
2023-04-19T18:55:36.654Z,98454.00
2023-04-19T18:58:03.298Z,98449.34
2023-04-19T19:00:29.981Z,98450.56
2023-04-19T19:05:34.724Z,98452.47
2023-04-19T19:08:02.204Z,98459.34
2023-04-19T19:12:58.642Z,98460.06
2023-04-19T19:15:25.313Z,98459.72
2023-04-19T19:17:51.995Z,98463.41
2023-04-19T19:20:19.680Z,98458.59
2023-04-19T19:22:46.592Z,98460.25
2023-04-19T19:25:13.460Z,98460.91
2023-04-19T19:27:40.247Z,98462.47
2023-04-19T19:30:08.070Z,98468.28
2023-04-19T19:32:35.216Z,98471.69
2023-04-19T19:35:06.382Z,98471.28
2023-04-19T19:37:37.819Z,98467.94
2023-04-19T19:40:11.059Z,98465.91
2023-04-19T19:42:39.553Z,98471.09
2023-04-19T19:45:08.021Z,98467.59
2023-04-19T19:47:35.857Z,98471.72
2023-04-19T19:50:46.114Z,98469.53
2023-04-19T19:52:51.552Z,98470.06
2023-04-19T19:55:18.321Z,98473.56
2023-04-19T20:00:36.445Z,98472.94
2023-04-19T20:05:40.302Z,98475.22
2023-04-19T20:08:12.514Z,98467.31
2023-04-19T20:10:41.342Z,98467.91
2023-04-19T20:13:08.318Z,98462.44
2023-04-19T20:15:36.235Z,98466.03
2023-04-19T20:18:03.725Z,98469.72
2023-04-19T20:20:30.481Z,98464.72
2023-04-19T20:22:57.210Z,98469.19
2023-04-19T20:25:24.060Z,98465.56
2023-04-19T20:27:50.681Z,98463.53
2023-04-19T20:30:17.304Z,98465.56
2023-04-19T20:32:44.122Z,98472.50
2023-04-19T20:35:12.538Z,98474.19
2023-04-19T20:37:40.072Z,98458.97
2023-04-19T20:40:10.109Z,98463.72
2023-04-19T20:45:10.729Z,98475.66
2023-04-19T20:47:38.682Z,98467.66
2023-04-19T20:50:09.057Z,98475.97
2023-04-19T20:52:35.957Z,98471.50
2023-04-19T20:55:02.721Z,98470.84
2023-04-19T20:57:29.479Z,98473.50
2023-04-19T20:59:59.852Z,98473.50
2023-04-19T21:02:26.733Z,98469.56
2023-04-19T21:04:53.511Z,98478.19
2023-04-19T21:07:20.437Z,98469.50
2023-04-19T21:09:47.052Z,98466.47
2023-04-19T21:12:13.768Z,98463.97
2023-04-19T21:14:40.407Z,98463.97
2023-04-19T21:17:07.071Z,98456.34
2023-04-19T21:19:33.672Z,98455.94
2023-04-19T21:22:00.376Z,98451.97
2023-04-19T21:24:27.061Z,98456.72
2023-04-19T21:26:53.755Z,98448.22
2023-04-19T21:29:21.078Z,98447.28
2023-04-19T21:31:47.936Z,98452.19
2023-04-19T21:34:14.666Z,98447.59
2023-04-19T21:36:41.356Z,98443.63
2023-04-19T21:41:42.140Z,98440.00
2023-04-19T21:46:40.115Z,98435.66
2023-04-19T21:49:06.880Z,98446.34
2023-04-19T21:51:33.542Z,98448.84
2023-04-19T21:54:00.205Z,98445.22
2023-04-19T21:56:27.015Z,98448.56
2023-04-19T21:58:53.755Z,98447.53
2023-04-19T22:01:20.493Z,98453.66
2023-04-19T22:03:47.839Z,98444.69
2023-04-19T22:06:17.275Z,98436.72
2023-04-19T22:08:44.341Z,98438.28
2023-04-19T22:11:12.112Z,98435.13
2023-04-19T22:13:38.950Z,98430.72
2023-04-19T22:16:06.147Z,98439.00
2023-04-19T22:18:34.796Z,98428.56
2023-04-19T22:21:01.412Z,98429.63
2023-04-19T22:23:28.084Z,98426.22
2023-04-19T22:25:54.872Z,98416.22
2023-04-19T22:28:21.515Z,98419.31
2023-04-19T22:30:48.187Z,98415.25
2023-04-19T22:33:14.843Z,98408.53
2023-04-19T22:35:41.522Z,98404.59
2023-04-19T22:38:08.398Z,98408.69
2023-04-19T22:40:35.040Z,98395.56
2023-04-19T22:43:01.682Z,98398.19
2023-04-19T22:45:28.305Z,98392.81
2023-04-19T22:50:26.247Z,98395.75
2023-04-19T22:52:52.988Z,98395.16
2023-04-19T22:55:19.699Z,98385.34
2023-04-19T22:57:46.380Z,98384.16
2023-04-19T23:00:13.584Z,98383.50
2023-04-19T23:02:41.071Z,98388.53
2023-04-19T23:05:08.167Z,98381.22
2023-04-19T23:07:34.918Z,98378.59
2023-04-19T23:10:03.236Z,98378.94
2023-04-19T23:12:31.252Z,98374.06
2023-04-19T23:14:58.589Z,98376.44
2023-04-19T23:17:25.534Z,98376.34
2023-04-19T23:19:52.202Z,98372.84
2023-04-19T23:22:18.968Z,98370.69
2023-04-19T23:24:45.752Z,98370.91
2023-04-19T23:27:12.682Z,98366.94
2023-04-19T23:29:39.335Z,98369.31
2023-04-19T23:32:06.347Z,98366.91
2023-04-19T23:34:33.020Z,98349.19
2023-04-19T23:37:00.020Z,98343.41
2023-04-19T23:39:27.047Z,98350.22
2023-04-19T23:41:53.696Z,98344.06
2023-04-19T23:44:20.603Z,98334.66
2023-04-19T23:46:47.454Z,98338.31
2023-04-19T23:49:14.182Z,98335.41
2023-04-19T23:51:40.827Z,98333.00
2023-04-19T23:54:07.414Z,98335.06
